createdAt,value
2018-11-01T00:00:23.846Z,97.5
2018-11-01T00:01:24.812Z,97.3
2018-11-01T00:02:25.530Z,97.5
2018-11-01T00:03:26.249Z,97.3
2018-11-01T00:04:26.969Z,97.3
2018-11-01T00:05:27.688Z,97.5
2018-11-01T00:06:28.409Z,97.7
2018-11-01T00:07:29.403Z,97.6
2018-11-01T00:08:30.114Z,97.5
2018-11-01T00:09:30.815Z,97.7
2018-11-01T00:10:31.777Z,97.7
2018-11-01T00:11:32.494Z,97.7
2018-11-01T00:12:33.203Z,97.7
2018-11-01T00:13:33.958Z,97.8
2018-11-01T00:14:34.674Z,97.6
2018-11-01T00:15:35.400Z,97.2
2018-11-01T00:16:36.119Z,98.0
2018-11-01T00:17:36.831Z,98.5
2018-11-01T00:18:37.550Z,98.4
2018-11-01T00:19:38.265Z,98.2
2018-11-01T00:20:38.982Z,98.4
2018-11-01T00:21:39.707Z,99.0
2018-11-01T00:22:40.423Z,98.9
2018-11-01T00:23:41.135Z,99.7
2018-11-01T00:24:41.844Z,99.2
2018-11-01T00:25:42.811Z,99.3
2018-11-01T00:26:43.529Z,99.9
2018-11-01T00:27:44.253Z,99.9
2018-11-01T00:28:44.976Z,99.8
2018-11-01T00:29:45.695Z,99.6
2018-11-01T00:30:46.414Z,99.5
2018-11-01T00:31:47.127Z,99.6
2018-11-01T00:32:47.856Z,99.5
2018-11-01T00:33:48.620Z,99.5
2018-11-01T00:34:49.341Z,99.4
2018-11-01T00:35:50.048Z,99.6
2018-11-01T00:36:51.006Z,99.5
2018-11-01T00:37:51.962Z,99.7
2018-11-01T00:38:52.685Z,99.7
2018-11-01T00:39:53.395Z,99.9
2018-11-01T00:40:54.106Z,99.9
2018-11-01T00:41:54.822Z,99.3
2018-11-01T00:42:55.533Z,99.2
2018-11-01T00:43:56.251Z,99.3
2018-11-01T00:44:56.977Z,99.4
2018-11-01T00:45:57.969Z,99.5
2018-11-01T00:46:58.699Z,99.4
2018-11-01T00:47:59.411Z,99.3
2018-11-01T00:49:00.123Z,99.3
2018-11-01T00:50:00.880Z,99.5
2018-11-01T00:51:01.609Z,99.4
2018-11-01T00:52:02.323Z,99.3
2018-11-01T00:53:03.048Z,99.3
2018-11-01T00:54:03.795Z,99.6
2018-11-01T00:55:04.555Z,99.5
2018-11-01T00:56:05.521Z,99.3
2018-11-01T00:57:06.224Z,99.5
2018-11-01T00:58:07.183Z,99.3
2018-11-01T00:59:07.884Z,99.5
2018-11-01T01:00:08.656Z,99.5
2018-11-01T01:01:09.374Z,99.9
2018-11-01T01:02:10.391Z,99.8
2018-11-01T01:03:11.044Z,100.0
2018-11-01T01:04:11.763Z,99.7
2018-11-01T01:05:12.784Z,99.8
2018-11-01T01:06:13.499Z,100.0
2018-11-01T01:07:14.222Z,100.0
2018-11-01T01:08:14.923Z,100.0
2018-11-01T01:09:15.633Z,100.0
2018-11-01T01:10:16.397Z,100.0
2018-11-01T01:11:17.111Z,100.0
2018-11-01T01:12:17.824Z,100.0
2018-11-01T01:13:18.541Z,100.0
2018-11-01T01:14:19.263Z,100.0
2018-11-01T01:15:19.983Z,100.0
2018-11-01T01:16:20.956Z,100.0
2018-11-01T01:17:21.658Z,100.0
2018-11-01T01:18:22.384Z,100.0
2018-11-01T01:19:23.350Z,100.0
2018-11-01T01:20:24.125Z,100.0
2018-11-01T01:21:25.082Z,100.0
2018-11-01T01:22:25.804Z,100.0
2018-11-01T01:23:26.511Z,100.0
2018-11-01T01:24:27.235Z,100.0
2018-11-01T01:25:27.954Z,100.0
2018-11-01T01:26:28.662Z,100.0
2018-11-01T01:27:29.380Z,100.0
2018-11-01T01:28:30.098Z,100.0
2018-11-01T01:29:30.820Z,100.0
2018-11-01T01:30:31.559Z,100.0
2018-11-01T01:31:32.275Z,100.0
2018-11-01T01:32:33.229Z,100.0
2018-11-01T01:33:33.948Z,100.0
2018-11-01T01:34:34.759Z,100.0
2018-11-01T01:35:35.389Z,100.0
2018-11-01T01:36:36.121Z,100.0
2018-11-01T01:37:36.883Z,100.0
2018-11-01T01:38:37.592Z,100.0
2018-11-01T01:39:38.561Z,100.0
2018-11-01T01:40:39.266Z,100.0
2018-11-01T01:41:40.236Z,100.0
2018-11-01T01:42:40.945Z,100.0
2018-11-01T01:43:41.647Z,100.0
2018-11-01T01:44:42.358Z,100.0
2018-11-01T01:45:43.074Z,100.0
2018-11-01T01:46:43.793Z,100.0
2018-11-01T01:47:44.755Z,100.0
2018-11-01T01:48:45.466Z,100.0
2018-11-01T01:49:46.187Z,100.0
2018-11-01T01:50:46.953Z,100.0
2018-11-01T01:51:47.626Z,100.0
2018-11-01T01:52:48.336Z,100.0
2018-11-01T01:53:49.053Z,100.0
2018-11-01T01:54:49.761Z,100.0
2018-11-01T01:55:50.490Z,100.0
2018-11-01T01:56:51.197Z,100.0
2018-11-01T01:57:51.917Z,100.0
2018-11-01T01:58:52.888Z,100.0
2018-11-01T01:59:53.617Z,100.0
2018-11-01T02:00:54.319Z,100.0
2018-11-01T02:01:55.286Z,100.0
2018-11-01T02:02:55.998Z,100.0
2018-11-01T02:03:56.965Z,100.0
2018-11-01T02:04:57.979Z,100.0
2018-11-01T02:05:58.693Z,100.0
2018-11-01T02:06:59.416Z,100.0
2018-11-01T02:08:00.129Z,100.0
2018-11-01T02:09:00.848Z,100.0
2018-11-01T02:10:01.568Z,100.0
2018-11-01T02:11:02.277Z,100.0
2018-11-01T02:12:02.994Z,100.0
2018-11-01T02:13:03.717Z,100.0
2018-11-01T02:14:04.440Z,100.0
2018-11-01T02:15:05.175Z,100.0
2018-11-01T02:16:05.876Z,100.0
2018-11-01T02:17:06.846Z,100.0
2018-11-01T02:18:07.569Z,100.0
2018-11-01T02:19:08.292Z,100.0
2018-11-01T02:20:09.014Z,100.0
2018-11-01T02:21:09.772Z,100.0
2018-11-01T02:22:10.495Z,100.0
2018-11-01T02:23:11.219Z,100.0
2018-11-01T02:24:11.927Z,100.0
2018-11-01T02:25:12.640Z,100.0
2018-11-01T02:26:13.399Z,100.0
2018-11-01T02:27:14.112Z,100.0
2018-11-01T02:28:14.829Z,100.0
2018-11-01T02:29:15.548Z,100.0
2018-11-01T02:30:16.260Z,100.0
2018-11-01T02:31:16.984Z,100.0
2018-11-01T02:32:17.693Z,100.0
2018-11-01T02:33:18.446Z,100.0
2018-11-01T02:34:19.170Z,100.0
2018-11-01T02:35:19.884Z,100.0
2018-11-01T02:36:20.592Z,100.0
2018-11-01T02:37:21.311Z,100.0
2018-11-01T02:38:22.026Z,100.0
2018-11-01T02:39:22.724Z,100.0
2018-11-01T02:40:23.447Z,100.0
2018-11-01T02:41:24.142Z,100.0
2018-11-01T02:42:24.855Z,100.0
2018-11-01T02:43:25.931Z,100.0
2018-11-01T02:44:26.628Z,100.0
2018-11-01T02:45:27.361Z,100.0
2018-11-01T02:46:28.071Z,100.0
2018-11-01T02:47:28.789Z,100.0
2018-11-01T02:48:29.505Z,100.0
2018-11-01T02:49:30.276Z,100.0
2018-11-01T02:50:30.996Z,100.0
2018-11-01T02:51:31.710Z,100.0
2018-11-01T02:52:32.435Z,100.0
2018-11-01T02:53:33.142Z,100.0
2018-11-01T02:54:33.858Z,100.0
2018-11-01T02:55:34.593Z,100.0
2018-11-01T02:56:35.313Z,100.0
2018-11-01T02:57:36.046Z,100.0
2018-11-01T02:58:36.751Z,100.0
2018-11-01T02:59:37.527Z,100.0
2018-11-01T03:00:38.233Z,100.0
2018-11-01T03:01:39.197Z,100.0
2018-11-01T03:02:39.924Z,100.0
2018-11-01T03:03:40.642Z,100.0
2018-11-01T03:04:41.357Z,100.0
2018-11-01T03:05:42.070Z,100.0
2018-11-01T03:06:42.785Z,100.0
2018-11-01T03:07:43.762Z,100.0
2018-11-01T03:08:44.465Z,100.0
2018-11-01T03:09:45.196Z,100.0
2018-11-01T03:10:45.895Z,100.0
2018-11-01T03:11:46.622Z,100.0
2018-11-01T03:12:47.322Z,100.0
2018-11-01T03:13:48.038Z,100.0
2018-11-01T03:14:48.755Z,100.0
2018-11-01T03:15:49.474Z,100.0
2018-11-01T03:16:50.202Z,100.0
2018-11-01T03:17:50.909Z,100.0
2018-11-01T03:18:51.626Z,100.0
2018-11-01T03:19:52.341Z,100.0
2018-11-01T03:20:53.057Z,100.0
2018-11-01T03:21:53.773Z,100.0
2018-11-01T03:22:54.502Z,100.0
2018-11-01T03:23:55.213Z,100.0
2018-11-01T03:24:55.936Z,100.0
2018-11-01T03:25:56.635Z,100.0
2018-11-01T03:26:57.414Z,100.0
2018-11-01T03:27:58.132Z,100.0
2018-11-01T03:28:58.850Z,100.0
2018-11-01T03:29:59.558Z,100.0
2018-11-01T03:31:00.274Z,100.0
2018-11-01T03:32:01.284Z,100.0
2018-11-01T03:33:01.999Z,100.0
2018-11-01T03:34:02.712Z,100.0
2018-11-01T03:35:03.426Z,100.0
2018-11-01T03:36:04.141Z,100.0
2018-11-01T03:37:04.865Z,100.0
2018-11-01T03:38:05.590Z,100.0
2018-11-01T03:39:06.466Z,100.0
2018-11-01T03:40:07.028Z,100.0
2018-11-01T03:41:07.734Z,100.0
2018-11-01T03:42:08.446Z,100.0
2018-11-01T03:43:09.160Z,100.0
2018-11-01T03:44:09.875Z,100.0
2018-11-01T03:45:10.602Z,100.0
2018-11-01T03:46:11.317Z,100.0
2018-11-01T03:47:12.033Z,100.0
2018-11-01T03:48:12.750Z,100.0
2018-11-01T03:49:13.456Z,100.0
2018-11-01T03:50:14.240Z,100.0
2018-11-01T03:51:14.944Z,100.0
2018-11-01T03:52:15.674Z,100.0
2018-11-01T03:53:16.393Z,100.0
2018-11-01T03:54:17.101Z,100.0
2018-11-01T03:55:17.852Z,100.0
2018-11-01T03:56:18.822Z,100.0
2018-11-01T03:57:19.532Z,100.0
2018-11-01T03:58:20.252Z,100.0
2018-11-01T03:59:20.981Z,100.0
2018-11-01T04:00:21.686Z,100.0
2018-11-01T04:01:22.400Z,100.0
2018-11-01T04:02:23.108Z,100.0
2018-11-01T04:03:23.811Z,100.0
2018-11-01T04:04:24.527Z,100.0
2018-11-01T04:05:25.242Z,100.0
2018-11-01T04:06:25.969Z,100.0
2018-11-01T04:07:26.743Z,100.0
2018-11-01T04:08:27.451Z,100.0
2018-11-01T04:09:28.181Z,100.0
2018-11-01T04:10:28.909Z,100.0
2018-11-01T04:11:29.615Z,100.0
2018-11-01T04:12:30.323Z,100.0
2018-11-01T04:13:31.133Z,100.0
2018-11-01T04:14:31.759Z,100.0
2018-11-01T04:15:32.469Z,100.0
2018-11-01T04:16:33.183Z,100.0
2018-11-01T04:17:33.950Z,100.0
2018-11-01T04:18:34.677Z,100.0
2018-11-01T04:19:35.387Z,100.0
2018-11-01T04:20:36.096Z,100.0
2018-11-01T04:21:36.810Z,100.0
2018-11-01T04:22:37.772Z,100.0
2018-11-01T04:23:38.728Z,100.0
2018-11-01T04:24:39.452Z,100.0
2018-11-01T04:25:40.197Z,100.0
2018-11-01T04:26:40.963Z,100.0
2018-11-01T04:27:41.658Z,100.0
2018-11-01T04:28:42.384Z,100.0
2018-11-01T04:29:43.086Z,100.0
2018-11-01T04:30:43.812Z,100.0
2018-11-01T04:31:44.530Z,100.0
2018-11-01T04:32:45.236Z,100.0
2018-11-01T04:33:46.036Z,100.0
2018-11-01T04:34:46.658Z,100.0
2018-11-01T04:35:47.437Z,100.0
2018-11-01T04:36:48.137Z,100.0
2018-11-01T04:37:48.852Z,100.0
2018-11-01T04:38:49.573Z,100.0
2018-11-01T04:39:50.275Z,100.0
2018-11-01T04:40:51.035Z,100.0
2018-11-01T04:41:51.740Z,100.0
2018-11-01T04:42:52.478Z,100.0
2018-11-01T04:43:53.193Z,100.0
2018-11-01T04:44:53.948Z,100.0
2018-11-01T04:45:54.664Z,100.0
2018-11-01T04:46:55.378Z,100.0
2018-11-01T04:47:56.217Z,100.0
2018-11-01T04:48:56.813Z,100.0
2018-11-01T04:49:57.536Z,100.0
2018-11-01T04:50:58.298Z,100.0
2018-11-01T04:51:59.009Z,100.0
2018-11-01T04:52:59.728Z,100.0
2018-11-01T04:54:00.448Z,100.0
2018-11-01T04:55:01.157Z,100.0
2018-11-01T04:56:01.880Z,100.0
2018-11-01T04:57:02.599Z,100.0
2018-11-01T04:58:03.314Z,100.0
2018-11-01T04:59:04.073Z,100.0
2018-11-01T05:00:04.777Z,100.0
2018-11-01T05:01:05.491Z,100.0
2018-11-01T05:02:06.209Z,100.0
2018-11-01T05:03:06.918Z,100.0
2018-11-01T05:04:07.646Z,100.0
2018-11-01T05:05:08.395Z,100.0
2018-11-01T05:06:09.084Z,100.0
2018-11-01T05:07:09.800Z,100.0
2018-11-01T05:08:10.588Z,100.0
2018-11-01T05:09:11.286Z,100.0
2018-11-01T05:10:12.008Z,100.0
2018-11-01T05:11:12.713Z,100.0
2018-11-01T05:12:13.439Z,100.0
2018-11-01T05:13:14.197Z,100.0
2018-11-01T05:14:14.957Z,100.0
2018-11-01T05:15:15.690Z,100.0
2018-11-01T05:16:16.354Z,100.0
2018-11-01T05:17:17.062Z,100.0
2018-11-01T05:18:17.785Z,100.0
2018-11-01T05:19:18.493Z,100.0
2018-11-01T05:20:19.306Z,100.0
2018-11-01T05:21:19.977Z,100.0
2018-11-01T05:22:20.695Z,100.0
2018-11-01T05:23:21.404Z,100.0
2018-11-01T05:24:22.108Z,100.0
2018-11-01T05:25:22.863Z,100.0
2018-11-01T05:26:23.600Z,100.0
2018-11-01T05:27:24.360Z,100.0
2018-11-01T05:28:25.079Z,100.0
2018-11-01T05:29:25.797Z,100.0
2018-11-01T05:30:26.561Z,100.0
2018-11-01T05:31:27.269Z,100.0
2018-11-01T05:32:27.985Z,100.0
2018-11-01T05:33:28.693Z,100.0
2018-11-01T05:34:29.440Z,100.0
2018-11-01T05:35:30.216Z,100.0
2018-11-01T05:36:30.939Z,100.0
2018-11-01T05:37:31.662Z,100.0
2018-11-01T05:38:32.373Z,100.0
2018-11-01T05:39:33.088Z,100.0
2018-11-01T05:40:33.791Z,100.0
2018-11-01T05:41:34.555Z,100.0
2018-11-01T05:42:35.294Z,100.0
2018-11-01T05:43:36.017Z,100.0
2018-11-01T05:44:36.757Z,100.0
2018-11-01T05:45:37.468Z,100.0
2018-11-01T05:46:38.243Z,100.0
2018-11-01T05:47:38.963Z,100.0
2018-11-01T05:48:39.671Z,100.0
2018-11-01T05:49:40.414Z,100.0
2018-11-01T05:50:41.129Z,100.0
2018-11-01T05:51:41.923Z,100.0
2018-11-01T05:52:42.896Z,100.0
2018-11-01T05:53:43.601Z,100.0
2018-11-01T05:54:44.323Z,100.0
2018-11-01T05:55:45.033Z,100.0
2018-11-01T05:56:45.752Z,100.0
2018-11-01T05:57:46.472Z,100.0
2018-11-01T05:58:47.183Z,100.0
2018-11-01T05:59:47.965Z,100.0
2018-11-01T06:00:48.650Z,100.0
2018-11-01T06:01:49.371Z,100.0
2018-11-01T06:02:50.385Z,100.0
2018-11-01T06:03:51.124Z,100.0
2018-11-01T06:04:51.855Z,100.0
2018-11-01T06:05:52.576Z,100.0
2018-11-01T06:06:53.316Z,100.0
2018-11-01T06:07:54.358Z,100.0
2018-11-01T06:08:55.061Z,100.0
2018-11-01T06:09:55.767Z,100.0
2018-11-01T06:10:56.484Z,100.0
2018-11-01T06:11:57.193Z,100.0
2018-11-01T06:12:57.904Z,100.0
2018-11-01T06:13:58.619Z,100.0
2018-11-01T06:14:59.353Z,100.0
2018-11-01T06:16:00.072Z,100.0
2018-11-01T06:17:00.795Z,100.0
2018-11-01T06:18:01.514Z,100.0
2018-11-01T06:19:02.262Z,100.0
2018-11-01T06:20:03.244Z,100.0
2018-11-01T06:21:03.968Z,100.0
2018-11-01T06:22:04.685Z,100.0
2018-11-01T06:23:05.412Z,100.0
2018-11-01T06:24:06.128Z,100.0
2018-11-01T06:25:06.854Z,100.0
2018-11-01T06:26:07.575Z,100.0
2018-11-01T06:27:08.329Z,100.0
2018-11-01T06:28:09.311Z,100.0
2018-11-01T06:29:10.026Z,100.0
2018-11-01T06:30:10.804Z,100.0
2018-11-01T06:31:11.489Z,100.0
2018-11-01T06:32:12.206Z,100.0
2018-11-01T06:33:12.926Z,100.0
2018-11-01T06:34:13.649Z,100.0
2018-11-01T06:35:14.375Z,100.0
2018-11-01T06:36:15.086Z,100.0
2018-11-01T06:37:15.802Z,100.0
2018-11-01T06:38:16.528Z,100.0
2018-11-01T06:39:17.271Z,100.0
2018-11-01T06:40:17.995Z,100.0
2018-11-01T06:41:18.716Z,100.0
2018-11-01T06:42:19.427Z,100.0
2018-11-01T06:43:20.150Z,100.0
2018-11-01T06:44:20.884Z,100.0
2018-11-01T06:45:21.591Z,100.0
2018-11-01T06:46:22.309Z,100.0
2018-11-01T06:47:23.019Z,100.0
2018-11-01T06:48:23.739Z,100.0
2018-11-01T06:49:24.444Z,100.0
2018-11-01T06:50:25.158Z,100.0
2018-11-01T06:51:25.867Z,100.0
2018-11-01T06:52:26.610Z,100.0
2018-11-01T06:53:27.298Z,100.0
2018-11-01T06:54:28.024Z,100.0
2018-11-01T06:55:28.996Z,100.0
2018-11-01T06:56:29.713Z,100.0
2018-11-01T06:57:30.428Z,100.0
2018-11-01T06:58:31.263Z,100.0
2018-11-01T06:59:31.935Z,100.0
2018-11-01T07:00:32.592Z,100.0
2018-11-01T07:01:33.360Z,100.0
2018-11-01T07:02:34.105Z,100.0
2018-11-01T07:03:34.814Z,100.0
2018-11-01T07:04:35.543Z,100.0
2018-11-01T07:05:36.273Z,100.0
2018-11-01T07:06:37.091Z,100.0
2018-11-01T07:07:37.806Z,100.0
2018-11-01T07:08:38.519Z,100.0
2018-11-01T07:09:39.251Z,100.0
2018-11-01T07:10:39.966Z,100.0
2018-11-01T07:11:40.825Z,100.0
2018-11-01T07:12:41.412Z,100.0
2018-11-01T07:13:42.135Z,100.0
2018-11-01T07:14:42.861Z,100.0
2018-11-01T07:15:43.575Z,100.0
2018-11-01T07:16:44.291Z,100.0
2018-11-01T07:17:45.106Z,100.0
2018-11-01T07:18:45.744Z,100.0
2018-11-01T07:19:46.464Z,100.0
2018-11-01T07:20:47.189Z,100.0
2018-11-01T07:21:47.903Z,100.0
2018-11-01T07:22:48.614Z,100.0
2018-11-01T07:23:49.392Z,100.0
2018-11-01T07:24:50.381Z,100.0
2018-11-01T07:25:51.123Z,100.0
2018-11-01T07:26:51.813Z,100.0
2018-11-01T07:27:52.541Z,100.0
2018-11-01T07:28:53.263Z,100.0
2018-11-01T07:29:53.975Z,100.0
2018-11-01T07:30:54.704Z,100.0
2018-11-01T07:31:55.434Z,100.0
2018-11-01T07:32:56.161Z,100.0
2018-11-01T07:33:56.870Z,100.0
2018-11-01T07:34:57.606Z,100.0
2018-11-01T07:35:58.316Z,100.0
2018-11-01T07:36:59.054Z,100.0
2018-11-01T07:37:59.827Z,100.0
2018-11-01T07:39:00.544Z,100.0
2018-11-01T07:40:01.328Z,100.0
2018-11-01T07:41:02.008Z,100.0
2018-11-01T07:42:02.747Z,100.0
2018-11-01T07:43:03.472Z,100.0
2018-11-01T07:44:04.250Z,100.0
2018-11-01T07:45:04.970Z,100.0
2018-11-01T07:46:05.694Z,100.0
2018-11-01T07:47:06.423Z,100.0
2018-11-01T07:48:07.135Z,100.0
2018-11-01T07:49:07.928Z,100.0
2018-11-01T07:50:08.645Z,100.0
2018-11-01T07:51:09.363Z,100.0
2018-11-01T07:52:10.129Z,100.0
2018-11-01T07:53:10.971Z,100.0
2018-11-01T07:54:12.267Z,100.0
2018-11-01T07:55:13.603Z,100.0
2018-11-01T07:56:14.368Z,100.0
2018-11-01T07:57:15.092Z,100.0
2018-11-01T07:58:15.823Z,100.0
2018-11-01T07:59:16.547Z,100.0
2018-11-01T08:00:17.259Z,100.0
2018-11-01T08:01:17.981Z,100.0
2018-11-01T08:02:18.705Z,100.0
2018-11-01T08:03:19.439Z,100.0
2018-11-01T08:04:20.155Z,100.0
2018-11-01T08:05:20.894Z,100.0
2018-11-01T08:06:21.615Z,100.0
2018-11-01T08:07:22.329Z,100.0
2018-11-01T08:08:23.059Z,100.0
2018-11-01T08:09:23.776Z,100.0
2018-11-01T08:10:24.542Z,100.0
2018-11-01T08:11:25.247Z,100.0
2018-11-01T08:12:26.037Z,100.0
2018-11-01T08:13:26.903Z,100.0
2018-11-01T08:14:27.734Z,100.0
2018-11-01T08:15:28.455Z,100.0
2018-11-01T08:16:29.179Z,100.0
2018-11-01T08:17:29.897Z,100.0
2018-11-01T08:18:31.182Z,100.0
2018-11-01T08:19:33.109Z,100.0
2018-11-01T08:20:33.626Z,100.0
2018-11-01T08:21:34.325Z,100.0
2018-11-01T08:22:35.055Z,100.0
2018-11-01T08:23:35.780Z,100.0
2018-11-01T08:24:36.769Z,100.0
2018-11-01T08:25:37.556Z,100.0
2018-11-01T08:26:38.272Z,100.0
2018-11-01T08:27:38.993Z,100.0
2018-11-01T08:28:39.713Z,100.0
2018-11-01T08:29:40.430Z,100.0
2018-11-01T08:30:41.200Z,100.0
2018-11-01T08:31:41.921Z,100.0
2018-11-01T08:32:42.626Z,100.0
2018-11-01T08:33:43.348Z,100.0
2018-11-01T08:34:44.060Z,100.0
2018-11-01T08:35:44.792Z,100.0
2018-11-01T08:36:45.512Z,100.0
2018-11-01T08:37:46.236Z,100.0
2018-11-01T08:38:46.951Z,100.0
2018-11-01T08:39:47.668Z,100.0
2018-11-01T08:40:48.416Z,100.0
2018-11-01T08:41:49.166Z,100.0
2018-11-01T08:42:49.888Z,100.0
2018-11-01T08:43:50.605Z,100.0
2018-11-01T08:44:51.328Z,100.0
2018-11-01T08:45:52.304Z,100.0
2018-11-01T08:46:53.026Z,100.0
2018-11-01T08:47:53.794Z,100.0
2018-11-01T08:48:54.511Z,100.0
2018-11-01T08:49:55.292Z,100.0
2018-11-01T08:50:55.953Z,100.0
2018-11-01T08:52:57.411Z,100.0
2018-11-01T08:53:58.142Z,100.0
2018-11-01T08:54:58.872Z,100.0
2018-11-01T08:55:59.646Z,100.0
2018-11-01T08:57:00.315Z,100.0
2018-11-01T08:58:01.345Z,100.0
2018-11-01T08:59:02.065Z,100.0
2018-11-01T09:00:02.785Z,100.0
2018-11-01T09:01:03.518Z,100.0
2018-11-01T09:02:04.947Z,100.0
2018-11-01T09:03:06.128Z,100.0
2018-11-01T09:04:06.953Z,100.0
2018-11-01T09:05:07.921Z,100.0
2018-11-01T09:06:08.620Z,100.0
2018-11-01T09:07:09.346Z,100.0
2018-11-01T09:08:10.128Z,100.0
2018-11-01T09:09:11.066Z,100.0
2018-11-01T09:10:11.792Z,100.0
2018-11-01T09:11:12.525Z,100.0
2018-11-01T09:12:13.249Z,100.0
2018-11-01T09:13:14.045Z,100.0
2018-11-01T09:14:14.708Z,100.0
2018-11-01T09:15:15.424Z,100.0
2018-11-01T09:16:16.450Z,100.0
2018-11-01T09:17:17.162Z,100.0
2018-11-01T09:18:17.884Z,100.0
2018-11-01T09:19:18.681Z,100.0
2018-11-01T09:20:19.337Z,100.0
2018-11-01T09:21:20.057Z,100.0
2018-11-01T09:22:20.792Z,100.0
2018-11-01T09:23:21.527Z,100.0
2018-11-01T09:24:22.262Z,100.0
2018-11-01T09:25:22.988Z,100.0
2018-11-01T09:26:23.978Z,100.0
2018-11-01T09:27:24.703Z,100.0
2018-11-01T09:28:25.427Z,100.0
2018-11-01T09:29:26.157Z,100.0
2018-11-01T09:30:26.885Z,100.0
2018-11-01T09:31:27.618Z,100.0
2018-11-01T09:32:28.400Z,100.0
2018-11-01T09:33:29.133Z,100.0
2018-11-01T09:34:29.869Z,100.0
2018-11-01T09:35:30.611Z,100.0
2018-11-01T09:36:31.319Z,100.0
2018-11-01T09:37:32.306Z,100.0
2018-11-01T09:38:33.083Z,100.0
2018-11-01T09:39:33.818Z,100.0
2018-11-01T09:40:34.868Z,100.0
2018-11-01T09:41:35.579Z,100.0
2018-11-01T09:42:36.783Z,100.0
2018-11-01T09:43:37.540Z,100.0
2018-11-01T09:44:38.253Z,100.0
2018-11-01T09:45:39.231Z,100.0
2018-11-01T09:46:40.184Z,100.0
2018-11-01T09:47:41.072Z,100.0
2018-11-01T09:48:41.462Z,100.0
2018-11-01T09:49:42.191Z,100.0
2018-11-01T09:50:42.916Z,100.0
2018-11-01T09:51:43.640Z,100.0
2018-11-01T09:52:44.368Z,100.0
2018-11-01T09:53:45.093Z,100.0
2018-11-01T09:54:45.831Z,100.0
2018-11-01T09:55:46.662Z,100.0
2018-11-01T09:56:47.306Z,100.0
2018-11-01T09:57:48.033Z,100.0
2018-11-01T09:58:48.810Z,100.0
2018-11-01T09:59:49.539Z,100.0
2018-11-01T10:00:50.256Z,100.0
2018-11-01T10:01:51.238Z,100.0
2018-11-01T10:02:51.962Z,100.0
2018-11-01T10:03:52.694Z,100.0
2018-11-01T10:04:53.418Z,100.0
2018-11-01T10:05:54.149Z,100.0
2018-11-01T10:06:54.949Z,100.0
2018-11-01T10:07:55.619Z,100.0
2018-11-01T10:08:56.356Z,100.0
2018-11-01T10:09:57.092Z,100.0
2018-11-01T10:10:57.825Z,100.0
2018-11-01T10:11:58.561Z,100.0
2018-11-01T10:12:59.333Z,100.0
2018-11-01T10:14:00.339Z,100.0
2018-11-01T10:15:01.142Z,100.0
2018-11-01T10:16:01.972Z,100.0
2018-11-01T10:17:02.740Z,100.0
2018-11-01T10:18:03.674Z,100.0
2018-11-01T10:19:03.966Z,100.0
2018-11-01T10:20:04.692Z,100.0
2018-11-01T10:21:05.412Z,100.0
2018-11-01T10:22:06.765Z,100.0
2018-11-01T10:23:07.424Z,100.0
2018-11-01T10:24:08.082Z,100.0
2018-11-01T10:25:08.853Z,100.0
2018-11-01T10:26:09.528Z,100.0
2018-11-01T10:27:19.514Z,100.0
2018-11-01T10:28:10.984Z,100.0
2018-11-01T10:29:11.758Z,100.0
2018-11-01T10:30:12.538Z,100.0
2018-11-01T10:31:13.253Z,100.0
2018-11-01T10:32:13.987Z,100.0
2018-11-01T10:33:14.708Z,100.0
2018-11-01T10:34:15.559Z,100.0
2018-11-01T10:35:16.284Z,100.0
2018-11-01T10:36:17.036Z,100.0
2018-11-01T10:37:17.757Z,100.0
2018-11-01T10:38:18.513Z,100.0
2018-11-01T10:39:19.289Z,100.0
2018-11-01T10:40:20.029Z,100.0
2018-11-01T10:41:20.758Z,100.0
2018-11-01T10:42:21.505Z,100.0
2018-11-01T10:43:22.249Z,100.0
2018-11-01T10:44:22.968Z,100.0
2018-11-01T10:45:23.717Z,100.0
2018-11-01T10:46:24.483Z,100.0
2018-11-01T10:47:25.234Z,100.0
2018-11-01T10:48:25.931Z,100.0
2018-11-01T10:49:26.663Z,100.0
2018-11-01T10:50:27.388Z,100.0
2018-11-01T10:51:28.447Z,100.0
2018-11-01T10:52:29.167Z,100.0
2018-11-01T10:53:29.934Z,100.0
2018-11-01T10:54:30.627Z,100.0
2018-11-01T10:55:31.334Z,100.0
2018-11-01T10:56:32.067Z,100.0
2018-11-01T10:57:32.806Z,100.0
2018-11-01T10:58:33.526Z,100.0
2018-11-01T10:59:34.281Z,100.0
2018-11-01T11:00:35.096Z,100.0
2018-11-01T11:01:37.014Z,100.0
2018-11-01T11:02:37.955Z,100.0
2018-11-01T11:03:39.246Z,100.0
2018-11-01T11:04:40.025Z,100.0
2018-11-01T11:05:40.749Z,100.0
2018-11-01T11:06:42.037Z,100.0
2018-11-01T11:07:42.900Z,100.0
2018-11-01T11:08:44.954Z,100.0
2018-11-01T11:09:45.790Z,100.0
2018-11-01T11:10:46.759Z,100.0
2018-11-01T11:11:47.628Z,100.0
2018-11-01T11:12:48.922Z,100.0
2018-11-01T11:13:50.142Z,100.0
2018-11-01T11:14:51.331Z,100.0
2018-11-01T11:15:52.049Z,100.0
2018-11-01T11:16:52.774Z,100.0
2018-11-01T11:17:53.515Z,100.0
2018-11-01T11:18:54.551Z,100.0
2018-11-01T11:19:55.317Z,100.0
2018-11-01T11:20:56.350Z,100.0
2018-11-01T11:21:56.733Z,100.0
2018-11-01T11:22:57.458Z,100.0
2018-11-01T11:23:58.185Z,100.0
2018-11-01T11:24:58.922Z,100.0
2018-11-01T11:25:59.640Z,100.0
2018-11-01T11:27:00.374Z,100.0
2018-11-01T11:28:01.353Z,100.0
2018-11-01T11:29:02.083Z,100.0
2018-11-01T11:30:02.877Z,100.0
2018-11-01T11:31:03.599Z,100.0
2018-11-01T11:32:04.377Z,100.0
2018-11-01T11:33:05.117Z,100.0
2018-11-01T11:34:06.126Z,100.0
2018-11-01T11:35:06.848Z,100.0
2018-11-01T11:36:08.346Z,100.0
2018-11-01T11:37:09.568Z,100.0
2018-11-01T11:38:10.289Z,100.0
2018-11-01T11:39:11.105Z,100.0
2018-11-01T11:40:11.752Z,100.0
2018-11-01T11:41:12.478Z,100.0
2018-11-01T11:42:13.212Z,100.0
2018-11-01T11:43:14.640Z,100.0
2018-11-01T11:44:15.559Z,100.0
2018-11-01T11:45:16.284Z,100.0
2018-11-01T11:46:17.262Z,100.0
2018-11-01T11:47:18.006Z,100.0
2018-11-01T11:48:18.785Z,100.0
2018-11-01T11:49:19.510Z,100.0
2018-11-01T11:50:20.235Z,100.0
2018-11-01T11:51:20.982Z,100.0
2018-11-01T11:52:21.699Z,100.0
2018-11-01T11:53:22.750Z,100.0
2018-11-01T11:54:23.484Z,100.0
2018-11-01T11:55:24.210Z,100.0
2018-11-01T11:56:24.935Z,100.0
2018-11-01T11:57:25.676Z,100.0
2018-11-01T11:58:26.397Z,100.0
2018-11-01T11:59:27.117Z,100.0
2018-11-01T12:00:27.844Z,100.0
2018-11-01T12:01:28.578Z,100.0
2018-11-01T12:02:29.326Z,100.0
2018-11-01T12:03:30.042Z,100.0
2018-11-01T12:04:30.782Z,100.0
2018-11-01T12:05:31.561Z,100.0
2018-11-01T12:06:32.240Z,100.0
2018-11-01T12:07:32.976Z,100.0
2018-11-01T12:08:33.714Z,100.0
2018-11-01T12:09:34.457Z,100.0
2018-11-01T12:10:35.203Z,100.0
2018-11-01T12:11:35.933Z,100.0
2018-11-01T12:12:36.659Z,100.0
2018-11-01T12:13:37.386Z,100.0
2018-11-01T12:14:38.115Z,100.0
2018-11-01T12:15:38.842Z,100.0
2018-11-01T12:16:39.569Z,100.0
2018-11-01T12:17:40.304Z,100.0
2018-11-01T12:18:41.031Z,100.0
2018-11-01T12:19:41.762Z,100.0
2018-11-01T12:20:42.535Z,100.0
2018-11-01T12:21:43.268Z,100.0
2018-11-01T12:22:43.990Z,100.0
2018-11-01T12:23:44.716Z,100.0
2018-11-01T12:24:45.464Z,100.0
2018-11-01T12:25:46.183Z,100.0
2018-11-01T12:26:46.904Z,100.0
2018-11-01T12:27:47.632Z,100.0
2018-11-01T12:28:48.510Z,100.0
2018-11-01T12:29:49.085Z,100.0
2018-11-01T12:30:49.833Z,100.0
2018-11-01T12:31:50.815Z,100.0
2018-11-01T12:32:51.565Z,100.0
2018-11-01T12:33:52.287Z,100.0
2018-11-01T12:34:53.019Z,100.0
2018-11-01T12:35:53.796Z,100.0
2018-11-01T12:36:54.475Z,100.0
2018-11-01T12:37:55.242Z,100.0
2018-11-01T12:38:55.958Z,100.0
2018-11-01T12:39:56.688Z,100.0
2018-11-01T12:40:57.408Z,100.0
2018-11-01T12:41:58.141Z,100.0
2018-11-01T12:42:58.867Z,100.0
2018-11-01T12:43:59.602Z,100.0
2018-11-01T12:45:00.319Z,100.0
2018-11-01T12:46:01.108Z,100.0
2018-11-01T12:47:01.772Z,100.0
2018-11-01T12:48:02.506Z,100.0
2018-11-01T12:49:03.277Z,100.0
2018-11-01T12:50:04.096Z,100.0
2018-11-01T12:51:04.754Z,100.0
2018-11-01T12:52:05.483Z,100.0
2018-11-01T12:53:06.477Z,100.0
2018-11-01T12:54:07.187Z,100.0
2018-11-01T12:55:07.906Z,100.0
2018-11-01T12:56:08.686Z,100.0
2018-11-01T12:57:09.362Z,100.0
2018-11-01T12:58:10.091Z,100.0
2018-11-01T12:59:10.815Z,100.0
2018-11-01T13:00:11.542Z,100.0
2018-11-01T13:01:12.516Z,100.0
2018-11-01T13:02:13.239Z,100.0
2018-11-01T13:03:13.967Z,100.0
2018-11-01T13:04:14.690Z,100.0
2018-11-01T13:05:15.808Z,100.0